Aérodrome :
LOGIN :

S'inscrire | Disclaimer

   EN    FR    IT 

 










Légende :    VFR   VFR Marginal   IFR   IFR Intensif   IFR Très Intensif
Visi : 
Plafond : 
>= 8 km
>= 3000ft
5 à 8 km
1000 à 3000 ft
1500m à 5 km
500 à 1000 ft
800 à 1500m
200 à 500 ft
< 800m
< 200 ft
Symboles :   Orages  Brouillard  Fortes neiges  Fortes précipitations  Vent > 20 kt
SIGMETs :   Divers  Orages  Givrage  Turbulence  Onde Orograph.  Cendres Volcan.






- Altitude de l'aérodrome : 468 ft
- Code IATA : GRO


LEGE - Girona Costa Brava

DERNIER METAR :
  • 091000Z 18001KT 9999 FEW030 12/06 Q1016

METARs EXPIRÉS :
  • 090930Z 17001KT 9999 FEW030 11/06 Q1016
  • 090900Z 17003KT 120V210 9999 FEW030 10/06 Q1016
  • 090830Z VRB01KT 9999 FEW030 08/06 Q1016
  • 090800Z VRB02KT 9999 FEW030 06/05 Q1016
  • 090730Z 00000KT 9000 3000 FEW015 05/04 Q1016

TAF TAF LEGE
Valide du 09 à 06h jusqu'au 10 à 06h UTC


090500Z 0906/1006 VRB03KT 9999 FEW030 TX16/0913Z TN05/0906Z
PROB30
TEMPO 0906/0908 4000 BR BKN010
BECMG 0909/0911 16010KT
PROB40
TEMPO 0913/0920 4000 SHRA FEW030TCU BKN040
BECMG 0918/0920 VRB04KT
PROB30
TEMPO 0922/1006 3000 BR BKN010



MET'MAP, la Météo Aéronautique d'un coup d'oeil ! - Copyright ORBIFLY Décembre 2007 - Disclaimer

ORBIFLY MET'MAP TEAM :

Programmation & Développement : Alexandra Zaïnal
Sur une idée originale de : Baudouin d'Aumeries
Assistance à la programmation : Marc-Olivier Méhu
Soutien technique & logistique : Manuel Goepfert

Contact : metmap@orbifly.com




SOURCES & CREDITS :

   NOAA